sensor_id;sensor_type;location;lat;lon;timestamp;P1;durP1;ratioP1;P2;durP2;ratioP2
18853;SDS011;9556;49.374;19.446;2023-04-30T00:00:13;6.40;;;4.20;;
18853;SDS011;9556;49.374;19.446;2023-04-30T00:02:41;4.75;;;3.47;;
18853;SDS011;9556;49.374;19.446;2023-04-30T00:05:08;4.55;;;3.55;;
18853;SDS011;9556;49.374;19.446;2023-04-30T00:07:35;4.45;;;3.33;;
18853;SDS011;9556;49.374;19.446;2023-04-30T00:10:06;5.00;;;3.38;;
18853;SDS011;9556;49.374;19.446;2023-04-30T00:12:35;5.38;;;3.47;;
18853;SDS011;9556;49.374;19.446;2023-04-30T00:15:02;9.40;;;5.68;;
18853;SDS011;9556;49.374;19.446;2023-04-30T00:17:30;7.95;;;5.25;;
18853;SDS011;9556;49.374;19.446;2023-04-30T00:19:57;10.18;;;6.57;;
18853;SDS011;9556;49.374;19.446;2023-04-30T00:22:24;10.52;;;7.25;;
18853;SDS011;9556;49.374;19.446;2023-04-30T00:24:51;10.20;;;6.88;;
18853;SDS011;9556;49.374;19.446;2023-04-30T00:27:18;11.55;;;7.82;;
18853;SDS011;9556;49.374;19.446;2023-04-30T00:29:47;11.98;;;7.60;;
18853;SDS011;9556;49.374;19.446;2023-04-30T00:32:14;10.90;;;7.80;;
18853;SDS011;9556;49.374;19.446;2023-04-30T00:34:42;11.88;;;7.50;;
18853;SDS011;9556;49.374;19.446;2023-04-30T00:37:09;10.07;;;7.25;;
18853;SDS011;9556;49.374;19.446;2023-04-30T00:39:37;9.52;;;6.20;;
18853;SDS011;9556;49.374;19.446;2023-04-30T00:42:04;8.13;;;5.93;;
18853;SDS011;9556;49.374;19.446;2023-04-30T00:44:31;8.95;;;5.35;;
18853;SDS011;9556;49.374;19.446;2023-04-30T00:46:59;5.45;;;4.13;;
18853;SDS011;9556;49.374;19.446;2023-04-30T00:49:27;5.72;;;4.03;;
18853;SDS011;9556;49.374;19.446;2023-04-30T00:51:54;5.53;;;3.78;;
18853;SDS011;9556;49.374;19.446;2023-04-30T00:54:21;8.93;;;4.00;;
18853;SDS011;9556;49.374;19.446;2023-04-30T00:56:49;4.25;;;3.22;;
18853;SDS011;9556;49.374;19.446;2023-04-30T00:59:16;3.90;;;3.03;;
18853;SDS011;9556;49.374;19.446;2023-04-30T01:01:43;3.35;;;2.60;;
18853;SDS011;9556;49.374;19.446;2023-04-30T01:04:12;3.17;;;2.53;;
18853;SDS011;9556;49.374;19.446;2023-04-30T01:06:39;3.85;;;2.75;;
18853;SDS011;9556;49.374;19.446;2023-04-30T01:09:07;3.65;;;2.63;;
18853;SDS011;9556;49.374;19.446;2023-04-30T01:11:37;3.63;;;2.60;;
18853;SDS011;9556;49.374;19.446;2023-04-30T01:14:09;3.78;;;2.90;;
18853;SDS011;9556;49.374;19.446;2023-04-30T01:16:39;3.10;;;2.45;;
18853;SDS011;9556;49.374;19.446;2023-04-30T01:19:08;4.70;;;2.63;;
18853;SDS011;9556;49.374;19.446;2023-04-30T01:21:38;4.63;;;2.50;;
18853;SDS011;9556;49.374;19.446;2023-04-30T01:24:14;3.15;;;2.30;;
18853;SDS011;9556;49.374;19.446;2023-04-30T01:26:48;6.07;;;4.40;;
18853;SDS011;9556;49.374;19.446;2023-04-30T01:29:19;9.40;;;6.97;;
18853;SDS011;9556;49.374;19.446;2023-04-30T01:31:48;11.63;;;7.80;;
18853;SDS011;9556;49.374;19.446;2023-04-30T01:34:15;12.68;;;8.60;;
18853;SDS011;9556;49.374;19.446;2023-04-30T01:36:44;11.73;;;8.52;;
18853;SDS011;9556;49.374;19.446;2023-04-30T01:39:17;10.35;;;7.07;;
18853;SDS011;9556;49.374;19.446;2023-04-30T01:41:48;12.77;;;8.02;;
18853;SDS011;9556;49.374;19.446;2023-04-30T01:44:22;10.35;;;7.35;;
18853;SDS011;9556;49.374;19.446;2023-04-30T01:46:53;10.73;;;7.63;;
18853;SDS011;9556;49.374;19.446;2023-04-30T01:49:24;11.43;;;8.00;;
18853;SDS011;9556;49.374;19.446;2023-04-30T01:51:54;9.88;;;6.40;;
18853;SDS011;9556;49.374;19.446;2023-04-30T01:54:26;9.18;;;6.72;;
18853;SDS011;9556;49.374;19.446;2023-04-30T01:56:56;8.98;;;6.18;;
18853;SDS011;9556;49.374;19.446;2023-04-30T01:59:29;5.68;;;4.13;;
18853;SDS011;9556;49.374;19.446;2023-04-30T02:01:56;5.50;;;3.72;;
18853;SDS011;9556;49.374;19.446;2023-04-30T02:04:24;5.18;;;3.45;;
18853;SDS011;9556;49.374;19.446;2023-04-30T02:06:51;3.58;;;3.00;;
18853;SDS011;9556;49.374;19.446;2023-04-30T02:09:18;4.10;;;3.22;;
18853;SDS011;9556;49.374;19.446;2023-04-30T02:11:48;3.25;;;2.70;;
18853;SDS011;9556;49.374;19.446;2023-04-30T02:14:15;4.10;;;3.40;;
18853;SDS011;9556;49.374;19.446;2023-04-30T02:16:43;4.65;;;3.35;;
18853;SDS011;9556;49.374;19.446;2023-04-30T02:19:11;5.95;;;3.95;;
18853;SDS011;9556;49.374;19.446;2023-04-30T02:21:38;5.22;;;3.80;;
18853;SDS011;9556;49.374;19.446;2023-04-30T02:24:05;6.28;;;4.32;;
18853;SDS011;9556;49.374;19.446;2023-04-30T02:26:32;6.05;;;4.18;;
18853;SDS011;9556;49.374;19.446;2023-04-30T02:28:59;5.65;;;4.13;;
18853;SDS011;9556;49.374;19.446;2023-04-30T02:31:27;5.75;;;4.63;;
18853;SDS011;9556;49.374;19.446;2023-04-30T02:33:55;4.85;;;4.05;;
18853;SDS011;9556;49.374;19.446;2023-04-30T02:36:22;6.07;;;4.47;;
18853;SDS011;9556;49.374;19.446;2023-04-30T02:38:50;6.50;;;4.20;;
18853;SDS011;9556;49.374;19.446;2023-04-30T02:41:17;5.00;;;3.80;;
18853;SDS011;9556;49.374;19.446;2023-04-30T02:43:44;4.63;;;3.50;;
18853;SDS011;9556;49.374;19.446;2023-04-30T02:46:11;3.92;;;2.85;;
18853;SDS011;9556;49.374;19.446;2023-04-30T02:48:39;3.97;;;3.03;;
18853;SDS011;9556;49.374;19.446;2023-04-30T02:51:07;4.40;;;3.13;;
18853;SDS011;9556;49.374;19.446;2023-04-30T02:53:34;4.65;;;3.50;;
18853;SDS011;9556;49.374;19.446;2023-04-30T02:56:02;3.72;;;2.95;;
18853;SDS011;9556;49.374;19.446;2023-04-30T02:58:29;3.92;;;3.20;;
18853;SDS011;9556;49.374;19.446;2023-04-30T03:00:56;3.20;;;2.60;;
18853;SDS011;9556;49.374;19.446;2023-04-30T03:03:23;3.28;;;2.60;;
18853;SDS011;9556;49.374;19.446;2023-04-30T03:05:50;3.72;;;2.75;;
18853;SDS011;9556;49.374;19.446;2023-04-30T03:08:22;3.22;;;2.72;;
18853;SDS011;9556;49.374;19.446;2023-04-30T03:10:49;3.20;;;2.63;;
18853;SDS011;9556;49.374;19.446;2023-04-30T03:13:16;3.17;;;2.42;;
18853;SDS011;9556;49.374;19.446;2023-04-30T03:15:43;4.15;;;3.30;;
18853;SDS011;9556;49.374;19.446;2023-04-30T03:18:10;4.40;;;3.40;;
18853;SDS011;9556;49.374;19.446;2023-04-30T03:20:37;4.68;;;3.38;;
18853;SDS011;9556;49.374;19.446;2023-04-30T03:23:04;3.42;;;2.70;;
18853;SDS011;9556;49.374;19.446;2023-04-30T03:25:33;3.25;;;2.60;;
18853;SDS011;9556;49.374;19.446;2023-04-30T03:28:00;3.90;;;2.92;;
18853;SDS011;9556;49.374;19.446;2023-04-30T03:30:27;3.00;;;2.40;;
18853;SDS011;9556;49.374;19.446;2023-04-30T03:32:54;2.78;;;2.33;;
18853;SDS011;9556;49.374;19.446;2023-04-30T03:35:22;3.10;;;2.50;;
18853;SDS011;9556;49.374;19.446;2023-04-30T03:37:49;3.53;;;2.70;;
18853;SDS011;9556;49.374;19.446;2023-04-30T03:40:16;3.58;;;2.33;;
18853;SDS011;9556;49.374;19.446;2023-04-30T03:42:44;2.92;;;2.47;;
18853;SDS011;9556;49.374;19.446;2023-04-30T03:45:12;3.85;;;2.70;;
18853;SDS011;9556;49.374;19.446;2023-04-30T03:47:39;2.95;;;2.45;;
18853;SDS011;9556;49.374;19.446;2023-04-30T03:50:07;3.17;;;2.47;;
18853;SDS011;9556;49.374;19.446;2023-04-30T03:52:34;3.58;;;2.65;;
18853;SDS011;9556;49.374;19.446;2023-04-30T03:55:01;2.80;;;2.38;;
18853;SDS011;9556;49.374;19.446;2023-04-30T03:57:28;2.88;;;2.30;;
18853;SDS011;9556;49.374;19.446;2023-04-30T03:59:57;2.97;;;2.35;;
18853;SDS011;9556;49.374;19.446;2023-04-30T04:02:24;2.58;;;1.95;;
18853;SDS011;9556;49.374;19.446;2023-04-30T04:04:51;2.15;;;1.88;;
18853;SDS011;9556;49.374;19.446;2023-04-30T04:07:19;2.25;;;1.90;;
18853;SDS011;9556;49.374;19.446;2023-04-30T04:09:46;2.70;;;1.98;;
18853;SDS011;9556;49.374;19.446;2023-04-30T04:12:13;2.50;;;2.15;;
18853;SDS011;9556;49.374;19.446;2023-04-30T04:14:40;2.45;;;2.08;;
18853;SDS011;9556;49.374;19.446;2023-04-30T04:17:09;3.10;;;2.20;;
18853;SDS011;9556;49.374;19.446;2023-04-30T04:19:36;2.15;;;1.77;;
18853;SDS011;9556;49.374;19.446;2023-04-30T04:22:03;2.00;;;1.75;;
18853;SDS011;9556;49.374;19.446;2023-04-30T04:24:30;2.20;;;1.95;;
18853;SDS011;9556;49.374;19.446;2023-04-30T04:26:57;3.53;;;2.20;;
18853;SDS011;9556;49.374;19.446;2023-04-30T04:29:26;2.60;;;2.10;;
18853;SDS011;9556;49.374;19.446;2023-04-30T04:31:54;3.88;;;2.00;;
18853;SDS011;9556;49.374;19.446;2023-04-30T04:34:22;3.17;;;2.25;;
18853;SDS011;9556;49.374;19.446;2023-04-30T04:36:50;2.75;;;2.35;;
18853;SDS011;9556;49.374;19.446;2023-04-30T04:39:18;2.50;;;2.10;;
18853;SDS011;9556;49.374;19.446;2023-04-30T04:41:45;3.17;;;2.30;;
18853;SDS011;9556;49.374;19.446;2023-04-30T04:44:12;3.13;;;2.20;;
18853;SDS011;9556;49.374;19.446;2023-04-30T04:46:39;2.22;;;1.92;;
18853;SDS011;9556;49.374;19.446;2023-04-30T04:49:08;2.95;;;2.10;;
18853;SDS011;9556;49.374;19.446;2023-04-30T04:51:38;2.63;;;2.10;;
18853;SDS011;9556;49.374;19.446;2023-04-30T04:54:05;2.55;;;2.10;;
18853;SDS011;9556;49.374;19.446;2023-04-30T04:56:32;2.67;;;2.22;;
18853;SDS011;9556;49.374;19.446;2023-04-30T04:58:59;2.70;;;2.00;;
18853;SDS011;9556;49.374;19.446;2023-04-30T05:01:27;1.77;;;1.65;;
18853;SDS011;9556;49.374;19.446;2023-04-30T05:03:54;2.28;;;1.90;;
18853;SDS011;9556;49.374;19.446;2023-04-30T05:06:22;1.70;;;1.58;;
18853;SDS011;9556;49.374;19.446;2023-04-30T05:08:50;2.00;;;1.75;;
18853;SDS011;9556;49.374;19.446;2023-04-30T05:11:17;2.58;;;1.70;;
18853;SDS011;9556;49.374;19.446;2023-04-30T05:13:46;2.40;;;1.77;;
18853;SDS011;9556;49.374;19.446;2023-04-30T05:16:13;2.55;;;2.22;;
18853;SDS011;9556;49.374;19.446;2023-04-30T05:18:40;6.65;;;2.13;;
18853;SDS011;9556;49.374;19.446;2023-04-30T05:21:07;2.10;;;1.90;;
18853;SDS011;9556;49.374;19.446;2023-04-30T05:23:35;3.00;;;2.30;;
18853;SDS011;9556;49.374;19.446;2023-04-30T05:26:03;2.40;;;1.90;;
18853;SDS011;9556;49.374;19.446;2023-04-30T05:28:31;2.45;;;2.03;;
18853;SDS011;9556;49.374;19.446;2023-04-30T05:30:58;2.58;;;2.00;;
18853;SDS011;9556;49.374;19.446;2023-04-30T05:33:25;3.00;;;2.30;;
18853;SDS011;9556;49.374;19.446;2023-04-30T05:35:52;3.78;;;2.42;;
18853;SDS011;9556;49.374;19.446;2023-04-30T05:38:19;4.22;;;2.65;;
18853;SDS011;9556;49.374;19.446;2023-04-30T05:40:47;2.55;;;2.00;;
18853;SDS011;9556;49.374;19.446;2023-04-30T05:43:15;3.13;;;1.92;;
18853;SDS011;9556;49.374;19.446;2023-04-30T05:45:42;2.85;;;2.10;;
18853;SDS011;9556;49.374;19.446;2023-04-30T05:48:10;4.38;;;1.80;;
18853;SDS011;9556;49.374;19.446;2023-04-30T05:50:37;3.63;;;1.80;;
18853;SDS011;9556;49.374;19.446;2023-04-30T05:53:04;3.10;;;1.70;;
18853;SDS011;9556;49.374;19.446;2023-04-30T05:55:31;3.35;;;2.10;;
18853;SDS011;9556;49.374;19.446;2023-04-30T05:57:58;3.40;;;2.50;;
18853;SDS011;9556;49.374;19.446;2023-04-30T06:00:27;4.63;;;3.10;;
18853;SDS011;9556;49.374;19.446;2023-04-30T06:02:54;6.43;;;2.20;;
18853;SDS011;9556;49.374;19.446;2023-04-30T06:05:21;4.25;;;1.83;;
18853;SDS011;9556;49.374;19.446;2023-04-30T06:07:48;2.17;;;1.65;;
18853;SDS011;9556;49.374;19.446;2023-04-30T06:10:15;1.55;;;1.30;;
18853;SDS011;9556;49.374;19.446;2023-04-30T06:12:43;2.28;;;1.40;;
18853;SDS011;9556;49.374;19.446;2023-04-30T06:15:10;2.53;;;1.40;;
18853;SDS011;9556;49.374;19.446;2023-04-30T06:17:38;2.28;;;1.42;;
18853;SDS011;9556;49.374;19.446;2023-04-30T06:20:06;3.13;;;1.52;;
18853;SDS011;9556;49.374;19.446;2023-04-30T06:22:33;2.20;;;1.80;;
18853;SDS011;9556;49.374;19.446;2023-04-30T06:25:01;3.20;;;2.03;;
18853;SDS011;9556;49.374;19.446;2023-04-30T06:27:28;3.25;;;2.33;;
18853;SDS011;9556;49.374;19.446;2023-04-30T06:29:56;3.17;;;1.73;;
18853;SDS011;9556;49.374;19.446;2023-04-30T06:32:24;2.70;;;1.70;;
18853;SDS011;9556;49.374;19.446;2023-04-30T06:34:53;2.83;;;1.83;;
18853;SDS011;9556;49.374;19.446;2023-04-30T06:37:21;3.00;;;1.90;;
18853;SDS011;9556;49.374;19.446;2023-04-30T06:39:48;2.50;;;2.00;;
18853;SDS011;9556;49.374;19.446;2023-04-30T06:42:15;6.40;;;3.33;;
18853;SDS011;9556;49.374;19.446;2023-04-30T06:44:42;5.50;;;3.50;;
18853;SDS011;9556;49.374;19.446;2023-04-30T06:47:11;26.52;;;16.45;;
18853;SDS011;9556;49.374;19.446;2023-04-30T06:49:38;22.15;;;16.35;;
18853;SDS011;9556;49.374;19.446;2023-04-30T06:52:06;22.83;;;15.63;;
18853;SDS011;9556;49.374;19.446;2023-04-30T06:54:34;24.42;;;17.13;;
18853;SDS011;9556;49.374;19.446;2023-04-30T06:57:01;15.32;;;9.90;;
18853;SDS011;9556;49.374;19.446;2023-04-30T06:59:28;9.02;;;6.50;;
18853;SDS011;9556;49.374;19.446;2023-04-30T07:01:55;7.07;;;5.05;;
18853;SDS011;9556;49.374;19.446;2023-04-30T07:04:22;13.05;;;7.25;;
18853;SDS011;9556;49.374;19.446;2023-04-30T07:06:50;7.78;;;4.75;;
18853;SDS011;9556;49.374;19.446;2023-04-30T07:09:18;6.25;;;4.68;;
18853;SDS011;9556;49.374;19.446;2023-04-30T07:11:45;8.75;;;5.40;;
18853;SDS011;9556;49.374;19.446;2023-04-30T07:14:13;6.03;;;4.72;;
18853;SDS011;9556;49.374;19.446;2023-04-30T07:16:40;5.25;;;4.18;;
18853;SDS011;9556;49.374;19.446;2023-04-30T07:19:07;7.20;;;4.57;;
18853;SDS011;9556;49.374;19.446;2023-04-30T07:21:34;6.93;;;4.82;;
18853;SDS011;9556;49.374;19.446;2023-04-30T07:24:01;9.90;;;5.05;;
18853;SDS011;9556;49.374;19.446;2023-04-30T07:26:30;7.68;;;5.45;;
18853;SDS011;9556;49.374;19.446;2023-04-30T07:28:58;6.18;;;4.85;;
18853;SDS011;9556;49.374;19.446;2023-04-30T07:31:25;9.73;;;5.30;;
18853;SDS011;9556;49.374;19.446;2023-04-30T07:33:52;6.45;;;4.88;;
18853;SDS011;9556;49.374;19.446;2023-04-30T07:36:20;6.82;;;4.45;;
18853;SDS011;9556;49.374;19.446;2023-04-30T07:38:47;7.65;;;5.13;;
18853;SDS011;9556;49.374;19.446;2023-04-30T07:41:14;8.25;;;5.65;;
18853;SDS011;9556;49.374;19.446;2023-04-30T07:43:43;8.85;;;4.70;;
18853;SDS011;9556;49.374;19.446;2023-04-30T07:46:10;10.52;;;4.53;;
18853;SDS011;9556;49.374;19.446;2023-04-30T07:48:37;7.25;;;4.35;;
18853;SDS011;9556;49.374;19.446;2023-04-30T07:51:04;9.35;;;5.00;;
18853;SDS011;9556;49.374;19.446;2023-04-30T07:53:32;10.25;;;6.70;;
18853;SDS011;9556;49.374;19.446;2023-04-30T07:55:59;6.07;;;4.43;;
18853;SDS011;9556;49.374;19.446;2023-04-30T07:58:26;6.05;;;4.25;;
18853;SDS011;9556;49.374;19.446;2023-04-30T08:00:54;9.45;;;7.15;;
18853;SDS011;9556;49.374;19.446;2023-04-30T08:03:22;28.40;;;16.25;;
18853;SDS011;9556;49.374;19.446;2023-04-30T08:05:49;13.35;;;8.75;;
18853;SDS011;9556;49.374;19.446;2023-04-30T08:08:16;19.50;;;9.32;;
18853;SDS011;9556;49.374;19.446;2023-04-30T08:10:43;22.20;;;10.85;;
18853;SDS011;9556;49.374;19.446;2023-04-30T08:13:10;34.78;;;23.75;;
18853;SDS011;9556;49.374;19.446;2023-04-30T08:15:37;23.55;;;15.48;;
18853;SDS011;9556;49.374;19.446;2023-04-30T08:18:06;13.10;;;7.82;;
18853;SDS011;9556;49.374;19.446;2023-04-30T08:20:33;19.23;;;11.65;;
18853;SDS011;9556;49.374;19.446;2023-04-30T08:23:00;18.38;;;8.98;;
18853;SDS011;9556;49.374;19.446;2023-04-30T08:25:27;10.82;;;6.75;;
18853;SDS011;9556;49.374;19.446;2023-04-30T08:27:55;11.70;;;6.13;;
18853;SDS011;9556;49.374;19.446;2023-04-30T08:30:22;13.68;;;6.30;;
18853;SDS011;9556;49.374;19.446;2023-04-30T08:32:50;9.88;;;5.82;;
18853;SDS011;9556;49.374;19.446;2023-04-30T08:35:18;11.52;;;6.22;;
18853;SDS011;9556;49.374;19.446;2023-04-30T08:37:45;11.05;;;6.00;;
18853;SDS011;9556;49.374;19.446;2023-04-30T08:40:13;10.13;;;6.15;;
18853;SDS011;9556;49.374;19.446;2023-04-30T08:42:42;10.40;;;5.53;;
18853;SDS011;9556;49.374;19.446;2023-04-30T08:45:10;13.80;;;5.90;;
18853;SDS011;9556;49.374;19.446;2023-04-30T08:47:38;7.22;;;4.95;;
18853;SDS011;9556;49.374;19.446;2023-04-30T08:50:06;9.27;;;4.82;;
18853;SDS011;9556;49.374;19.446;2023-04-30T08:52:34;8.95;;;5.32;;
18853;SDS011;9556;49.374;19.446;2023-04-30T08:55:04;10.23;;;5.72;;
18853;SDS011;9556;49.374;19.446;2023-04-30T08:57:32;10.45;;;5.20;;
18853;SDS011;9556;49.374;19.446;2023-04-30T09:00:00;8.80;;;5.75;;
18853;SDS011;9556;49.374;19.446;2023-04-30T09:02:27;10.68;;;6.05;;
18853;SDS011;9556;49.374;19.446;2023-04-30T09:04:57;11.40;;;5.80;;
18853;SDS011;9556;49.374;19.446;2023-04-30T09:07:24;11.10;;;6.25;;
18853;SDS011;9556;49.374;19.446;2023-04-30T09:09:54;10.48;;;6.47;;
18853;SDS011;9556;49.374;19.446;2023-04-30T09:12:22;11.73;;;6.50;;
18853;SDS011;9556;49.374;19.446;2023-04-30T09:14:59;10.23;;;6.70;;
18853;SDS011;9556;49.374;19.446;2023-04-30T09:17:27;10.02;;;6.22;;
18853;SDS011;9556;49.374;19.446;2023-04-30T09:19:55;9.82;;;6.30;;
18853;SDS011;9556;49.374;19.446;2023-04-30T09:22:32;11.02;;;5.97;;
18853;SDS011;9556;49.374;19.446;2023-04-30T09:25:00;11.50;;;5.60;;
18853;SDS011;9556;49.374;19.446;2023-04-30T09:27:27;11.10;;;5.53;;
18853;SDS011;9556;49.374;19.446;2023-04-30T09:29:55;11.05;;;6.28;;
18853;SDS011;9556;49.374;19.446;2023-04-30T09:32:22;12.00;;;6.20;;
18853;SDS011;9556;49.374;19.446;2023-04-30T09:34:49;13.65;;;6.00;;
18853;SDS011;9556;49.374;19.446;2023-04-30T09:37:16;12.45;;;8.13;;
18853;SDS011;9556;49.374;19.446;2023-04-30T09:39:47;13.77;;;9.75;;
18853;SDS011;9556;49.374;19.446;2023-04-30T09:42:16;8.98;;;6.57;;
18853;SDS011;9556;49.374;19.446;2023-04-30T09:44:44;11.30;;;7.38;;
18853;SDS011;9556;49.374;19.446;2023-04-30T09:47:11;11.10;;;6.80;;
18853;SDS011;9556;49.374;19.446;2023-04-30T09:49:40;11.07;;;7.03;;
18853;SDS011;9556;49.374;19.446;2023-04-30T09:52:07;12.20;;;8.15;;
18853;SDS011;9556;49.374;19.446;2023-04-30T09:54:35;10.48;;;7.10;;
18853;SDS011;9556;49.374;19.446;2023-04-30T09:57:03;31.77;;;19.40;;
18853;SDS011;9556;49.374;19.446;2023-04-30T09:59:35;11.43;;;6.72;;
18853;SDS011;9556;49.374;19.446;2023-04-30T10:02:04;10.50;;;6.80;;
18853;SDS011;9556;49.374;19.446;2023-04-30T10:04:32;15.52;;;9.23;;
18853;SDS011;9556;49.374;19.446;2023-04-30T10:07:01;36.13;;;20.23;;
18853;SDS011;9556;49.374;19.446;2023-04-30T10:09:29;15.00;;;8.52;;
18853;SDS011;9556;49.374;19.446;2023-04-30T10:11:59;13.70;;;6.60;;
18853;SDS011;9556;49.374;19.446;2023-04-30T10:14:26;10.73;;;6.30;;
18853;SDS011;9556;49.374;19.446;2023-04-30T10:17:00;17.38;;;9.38;;
18853;SDS011;9556;49.374;19.446;2023-04-30T10:19:30;16.23;;;9.65;;
18853;SDS011;9556;49.374;19.446;2023-04-30T10:21:57;14.02;;;6.70;;
18853;SDS011;9556;49.374;19.446;2023-04-30T10:24:26;12.45;;;5.43;;
18853;SDS011;9556;49.374;19.446;2023-04-30T10:26:53;15.15;;;8.50;;
18853;SDS011;9556;49.374;19.446;2023-04-30T10:29:21;26.95;;;15.10;;
18853;SDS011;9556;49.374;19.446;2023-04-30T10:31:48;20.10;;;11.70;;
18853;SDS011;9556;49.374;19.446;2023-04-30T10:34:20;16.90;;;8.43;;
18853;SDS011;9556;49.374;19.446;2023-04-30T10:36:49;12.85;;;6.38;;
18853;SDS011;9556;49.374;19.446;2023-04-30T10:39:19;13.77;;;7.07;;
18853;SDS011;9556;49.374;19.446;2023-04-30T10:41:47;12.32;;;7.28;;
18853;SDS011;9556;49.374;19.446;2023-04-30T10:44:14;12.95;;;6.88;;
18853;SDS011;9556;49.374;19.446;2023-04-30T10:46:48;12.10;;;7.38;;
18853;SDS011;9556;49.374;19.446;2023-04-30T10:49:20;12.18;;;6.40;;
18853;SDS011;9556;49.374;19.446;2023-04-30T10:51:51;10.88;;;5.72;;
18853;SDS011;9556;49.374;19.446;2023-04-30T10:54:22;7.78;;;5.10;;
18853;SDS011;9556;49.374;19.446;2023-04-30T10:56:50;8.38;;;5.22;;
18853;SDS011;9556;49.374;19.446;2023-04-30T10:59:20;9.57;;;5.20;;
18853;SDS011;9556;49.374;19.446;2023-04-30T11:01:55;9.82;;;5.40;;
18853;SDS011;9556;49.374;19.446;2023-04-30T11:04:23;9.20;;;4.88;;
18853;SDS011;9556;49.374;19.446;2023-04-30T11:09:37;8.02;;;5.32;;
18853;SDS011;9556;49.374;19.446;2023-04-30T11:12:08;7.95;;;5.13;;
18853;SDS011;9556;49.374;19.446;2023-04-30T11:14:38;8.55;;;5.65;;
18853;SDS011;9556;49.374;19.446;2023-04-30T11:17:06;10.50;;;5.45;;
18853;SDS011;9556;49.374;19.446;2023-04-30T11:19:33;13.07;;;4.88;;
18853;SDS011;9556;49.374;19.446;2023-04-30T11:22:16;7.90;;;4.78;;
18853;SDS011;9556;49.374;19.446;2023-04-30T11:24:52;9.43;;;4.90;;
18853;SDS011;9556;49.374;19.446;2023-04-30T11:27:20;11.52;;;4.30;;
18853;SDS011;9556;49.374;19.446;2023-04-30T11:29:47;16.75;;;4.78;;
18853;SDS011;9556;49.374;19.446;2023-04-30T11:32:15;7.80;;;4.78;;
18853;SDS011;9556;49.374;19.446;2023-04-30T11:34:42;8.50;;;5.20;;
18853;SDS011;9556;49.374;19.446;2023-04-30T11:37:11;9.18;;;4.85;;
18853;SDS011;9556;49.374;19.446;2023-04-30T11:39:38;13.25;;;4.40;;
18853;SDS011;9556;49.374;19.446;2023-04-30T11:42:07;9.88;;;4.95;;
18853;SDS011;9556;49.374;19.446;2023-04-30T11:44:35;8.45;;;4.38;;
18853;SDS011;9556;49.374;19.446;2023-04-30T11:47:03;18.17;;;4.78;;
18853;SDS011;9556;49.374;19.446;2023-04-30T11:49:30;8.32;;;4.72;;
18853;SDS011;9556;49.374;19.446;2023-04-30T11:51:58;8.38;;;4.70;;
18853;SDS011;9556;49.374;19.446;2023-04-30T11:54:25;10.65;;;4.63;;
18853;SDS011;9556;49.374;19.446;2023-04-30T11:56:52;8.73;;;4.18;;
18853;SDS011;9556;49.374;19.446;2023-04-30T11:59:27;9.60;;;4.30;;
18853;SDS011;9556;49.374;19.446;2023-04-30T12:01:54;9.70;;;4.30;;
18853;SDS011;9556;49.374;19.446;2023-04-30T12:04:22;10.73;;;4.85;;
18853;SDS011;9556;49.374;19.446;2023-04-30T12:06:49;8.23;;;4.07;;
18853;SDS011;9556;49.374;19.446;2023-04-30T12:09:16;8.48;;;4.03;;
18853;SDS011;9556;49.374;19.446;2023-04-30T12:11:43;7.80;;;3.47;;
18853;SDS011;9556;49.374;19.446;2023-04-30T12:14:14;7.47;;;3.70;;
18853;SDS011;9556;49.374;19.446;2023-04-30T12:16:43;6.38;;;3.72;;
18853;SDS011;9556;49.374;19.446;2023-04-30T12:19:13;6.10;;;3.97;;
18853;SDS011;9556;49.374;19.446;2023-04-30T12:21:40;7.53;;;4.15;;
18853;SDS011;9556;49.374;19.446;2023-04-30T12:24:09;6.25;;;4.20;;
18853;SDS011;9556;49.374;19.446;2023-04-30T12:26:37;10.00;;;3.80;;
18853;SDS011;9556;49.374;19.446;2023-04-30T12:29:07;11.05;;;4.22;;
18853;SDS011;9556;49.374;19.446;2023-04-30T12:31:35;8.88;;;3.55;;
18853;SDS011;9556;49.374;19.446;2023-04-30T12:34:04;10.20;;;3.90;;
18853;SDS011;9556;49.374;19.446;2023-04-30T12:36:31;8.82;;;3.78;;
18853;SDS011;9556;49.374;19.446;2023-04-30T12:39:06;9.45;;;3.85;;
18853;SDS011;9556;49.374;19.446;2023-04-30T12:41:35;10.43;;;4.10;;
18853;SDS011;9556;49.374;19.446;2023-04-30T12:44:12;9.13;;;4.10;;
18853;SDS011;9556;49.374;19.446;2023-04-30T12:46:39;16.27;;;3.58;;
18853;SDS011;9556;49.374;19.446;2023-04-30T12:49:08;5.32;;;3.47;;
18853;SDS011;9556;49.374;19.446;2023-04-30T12:51:36;5.53;;;3.47;;
18853;SDS011;9556;49.374;19.446;2023-04-30T12:54:04;5.72;;;3.60;;
18853;SDS011;9556;49.374;19.446;2023-04-30T12:56:32;8.95;;;3.33;;
18853;SDS011;9556;49.374;19.446;2023-04-30T12:58:59;6.40;;;3.80;;
18853;SDS011;9556;49.374;19.446;2023-04-30T13:01:26;6.40;;;3.35;;
18853;SDS011;9556;49.374;19.446;2023-04-30T13:03:54;9.50;;;4.03;;
18853;SDS011;9556;49.374;19.446;2023-04-30T13:06:22;9.65;;;3.67;;
18853;SDS011;9556;49.374;19.446;2023-04-30T13:08:49;4.82;;;3.33;;
18853;SDS011;9556;49.374;19.446;2023-04-30T13:11:16;7.15;;;3.60;;
18853;SDS011;9556;49.374;19.446;2023-04-30T13:13:43;6.78;;;3.63;;
18853;SDS011;9556;49.374;19.446;2023-04-30T13:16:11;5.97;;;3.05;;
18853;SDS011;9556;49.374;19.446;2023-04-30T13:18:38;4.40;;;3.17;;
18853;SDS011;9556;49.374;19.446;2023-04-30T13:21:05;4.25;;;3.00;;
18853;SDS011;9556;49.374;19.446;2023-04-30T13:23:34;9.40;;;3.10;;
18853;SDS011;9556;49.374;19.446;2023-04-30T13:26:01;4.32;;;2.78;;
18853;SDS011;9556;49.374;19.446;2023-04-30T13:28:29;4.82;;;2.85;;
18853;SDS011;9556;49.374;19.446;2023-04-30T13:30:56;5.88;;;3.33;;
18853;SDS011;9556;49.374;19.446;2023-04-30T13:33:23;5.57;;;3.42;;
18853;SDS011;9556;49.374;19.446;2023-04-30T13:35:50;5.63;;;2.80;;
18853;SDS011;9556;49.374;19.446;2023-04-30T13:38:17;6.40;;;3.05;;
18853;SDS011;9556;49.374;19.446;2023-04-30T13:40:46;10.07;;;5.75;;
18853;SDS011;9556;49.374;19.446;2023-04-30T13:43:13;11.30;;;5.13;;
18853;SDS011;9556;49.374;19.446;2023-04-30T13:45:40;24.25;;;8.82;;
18853;SDS011;9556;49.374;19.446;2023-04-30T13:48:08;13.63;;;6.00;;
18853;SDS011;9556;49.374;19.446;2023-04-30T13:50:35;8.90;;;4.60;;
18853;SDS011;9556;49.374;19.446;2023-04-30T13:53:02;5.65;;;3.70;;
18853;SDS011;9556;49.374;19.446;2023-04-30T13:55:29;8.52;;;3.72;;
18853;SDS011;9556;49.374;19.446;2023-04-30T13:57:58;7.07;;;3.78;;
18853;SDS011;9556;49.374;19.446;2023-04-30T14:00:26;5.03;;;3.30;;
18853;SDS011;9556;49.374;19.446;2023-04-30T14:02:53;5.03;;;2.92;;
18853;SDS011;9556;49.374;19.446;2023-04-30T14:05:20;5.10;;;2.97;;
18853;SDS011;9556;49.374;19.446;2023-04-30T14:07:47;6.35;;;3.63;;
18853;SDS011;9556;49.374;19.446;2023-04-30T14:10:15;5.80;;;3.00;;
18853;SDS011;9556;49.374;19.446;2023-04-30T14:12:42;6.00;;;3.63;;
18853;SDS011;9556;49.374;19.446;2023-04-30T14:15:10;8.00;;;3.33;;
18853;SDS011;9556;49.374;19.446;2023-04-30T14:17:38;13.07;;;8.27;;
18853;SDS011;9556;49.374;19.446;2023-04-30T14:20:06;9.45;;;6.38;;
18853;SDS011;9556;49.374;19.446;2023-04-30T14:22:33;26.52;;;16.02;;
18853;SDS011;9556;49.374;19.446;2023-04-30T14:25:02;23.08;;;12.18;;
18853;SDS011;9556;49.374;19.446;2023-04-30T14:27:30;25.33;;;15.38;;
18853;SDS011;9556;49.374;19.446;2023-04-30T14:29:57;31.00;;;17.63;;
18853;SDS011;9556;49.374;19.446;2023-04-30T14:32:26;14.02;;;8.27;;
18853;SDS011;9556;49.374;19.446;2023-04-30T14:34:53;5.47;;;3.13;;
18853;SDS011;9556;49.374;19.446;2023-04-30T14:37:20;3.78;;;2.65;;
18853;SDS011;9556;49.374;19.446;2023-04-30T14:39:47;5.28;;;3.15;;
18853;SDS011;9556;49.374;19.446;2023-04-30T14:42:15;10.57;;;3.95;;
18853;SDS011;9556;49.374;19.446;2023-04-30T14:44:42;5.57;;;3.70;;
18853;SDS011;9556;49.374;19.446;2023-04-30T14:47:09;6.28;;;2.60;;
18853;SDS011;9556;49.374;19.446;2023-04-30T14:49:38;6.63;;;3.55;;